createdAt,value
2023-04-04T00:04:30.011Z,99365.53
2023-04-04T00:09:31.902Z,99357.44
2023-04-04T00:14:33.819Z,99354.22
2023-04-04T00:19:35.611Z,99348.06
2023-04-04T00:24:37.695Z,99335.50
2023-04-04T00:29:39.527Z,99334.47
2023-04-04T00:34:41.589Z,99330.69
2023-04-04T00:39:43.456Z,99337.19
2023-04-04T00:44:45.605Z,99330.75
2023-04-04T00:49:48.103Z,99332.63
2023-04-04T00:54:50.176Z,99322.78
2023-04-04T00:59:52.394Z,99321.97
2023-04-04T01:04:54.664Z,99321.41
2023-04-04T01:09:58.252Z,99317.41
2023-04-04T01:15:00.451Z,99315.34
2023-04-04T01:20:15.882Z,99312.63
2023-04-04T01:25:30.304Z,99309.94
2023-04-04T01:30:37.320Z,99307.56
2023-04-04T01:35:53.418Z,99312.13
2023-04-04T01:41:03.971Z,99296.03
2023-04-04T01:46:08.170Z,99304.66
2023-04-04T01:51:10.497Z,99297.16
2023-04-04T01:56:13.264Z,99291.81
2023-04-04T02:01:16.059Z,99290.69
2023-04-04T02:06:17.908Z,99287.47
2023-04-04T02:11:23.077Z,99285.88
2023-04-04T02:16:25.801Z,99279.72
2023-04-04T02:21:28.132Z,99276.28
2023-04-04T02:26:30.667Z,99281.94
2023-04-04T02:31:34.351Z,99275.22
2023-04-04T02:36:36.832Z,99272.59
2023-04-04T02:41:39.319Z,99268.34
2023-04-04T02:46:42.153Z,99271.53
2023-04-04T02:51:48.140Z,99260.53
2023-04-04T02:56:50.195Z,99261.88
2023-04-04T03:01:52.129Z,99274.22
2023-04-04T03:06:54.735Z,99279.84
2023-04-04T03:11:57.306Z,99276.69
2023-04-04T03:16:59.694Z,99271.13
2023-04-04T03:22:01.657Z,99275.19
2023-04-04T03:27:07.490Z,99267.75
2023-04-04T03:32:09.366Z,99263.22
2023-04-04T03:37:11.433Z,99258.44
2023-04-04T03:42:13.414Z,99261.94
2023-04-04T03:47:15.511Z,99263.56
2023-04-04T03:52:17.548Z,99257.16
2023-04-04T03:57:19.757Z,99251.03
2023-04-04T04:02:21.667Z,99249.16
2023-04-04T04:07:23.656Z,99254.50
2023-04-04T04:12:26.397Z,99261.22
2023-04-04T04:17:28.289Z,99253.44
2023-04-04T04:22:30.424Z,99259.34
2023-04-04T04:27:32.327Z,99257.47
2023-04-04T04:32:35.157Z,99258.31
2023-04-04T04:37:37.286Z,99258.03
2023-04-04T04:42:47.346Z,99262.56
2023-04-04T04:47:53.086Z,99259.66
2023-04-04T04:52:56.015Z,99264.19
2023-04-04T04:57:57.906Z,99263.69
2023-04-04T05:03:02.264Z,99263.41
2023-04-04T05:08:12.920Z,99263.13
2023-04-04T05:13:26.046Z,99265.25
2023-04-04T05:18:28.535Z,99274.88
2023-04-04T05:23:31.880Z,99286.13
2023-04-04T05:28:34.818Z,99291.06
2023-04-04T05:33:39.530Z,99289.09
2023-04-04T05:39:10.579Z,99290.16
2023-04-04T05:44:19.978Z,99291.78
2023-04-04T05:49:22.258Z,99295.56
2023-04-04T05:54:31.092Z,99292.63
2023-04-04T05:59:36.809Z,99301.97
2023-04-04T06:04:41.175Z,99301.69
2023-04-04T06:09:45.629Z,99303.47
2023-04-04T06:14:47.652Z,99310.16
2023-04-04T06:19:55.823Z,99300.75
2023-04-04T06:24:58.322Z,99303.25
2023-04-04T06:30:02.999Z,99290.66
2023-04-04T06:35:05.270Z,99287.75
2023-04-04T06:40:16.353Z,99288.78
2023-04-04T06:45:18.933Z,99292.59
2023-04-04T06:50:23.063Z,99295.28
2023-04-04T06:55:25.045Z,99293.25
2023-04-04T07:00:27.151Z,99291.19
2023-04-04T07:05:29.281Z,99280.31
2023-04-04T07:10:31.235Z,99277.22
2023-04-04T07:15:33.123Z,99284.91
2023-04-04T07:20:35.275Z,99287.75
2023-04-04T07:25:38.253Z,99278.16
2023-04-04T07:30:40.458Z,99283.16
2023-04-04T07:35:42.563Z,99284.13
2023-04-04T07:40:44.450Z,99286.38
2023-04-04T07:45:46.350Z,99284.34
2023-04-04T07:50:48.283Z,99277.22
2023-04-04T07:55:50.093Z,99286.56
2023-04-04T08:00:51.895Z,99282.06
2023-04-04T08:05:53.737Z,99281.53
2023-04-04T08:10:55.722Z,99284.44
2023-04-04T08:15:57.673Z,99285.44
2023-04-04T08:20:59.514Z,99279.41
2023-04-04T08:26:01.316Z,99286.53
2023-04-04T08:31:04.404Z,99282.28
2023-04-04T08:36:06.455Z,99272.13
2023-04-04T08:41:08.841Z,99277.50
2023-04-04T08:46:12.807Z,99272.13
2023-04-04T08:51:17.597Z,99273.47
2023-04-04T08:56:19.710Z,99267.50
2023-04-04T09:01:23.135Z,99262.06
2023-04-04T09:06:26.678Z,99263.00
2023-04-04T09:11:31.839Z,99262.72
2023-04-04T09:16:33.763Z,99272.25
2023-04-04T09:21:36.021Z,99278.72
2023-04-04T09:26:53.729Z,99255.56
2023-04-04T09:31:55.796Z,99255.09
2023-04-04T09:36:58.769Z,99251.31
2023-04-04T09:42:01.586Z,99254.78
2023-04-04T09:52:37.644Z,99256.00
2023-04-04T09:57:41.773Z,99264.66
2023-04-04T10:02:48.194Z,99259.03
2023-04-04T10:07:50.123Z,99251.75
2023-04-04T10:12:52.992Z,99249.31
2023-04-04T10:17:55.648Z,99246.94
2023-04-04T10:22:58.737Z,99238.97
2023-04-04T10:28:00.702Z,99239.44
2023-04-04T10:33:09.018Z,99244.06
2023-04-04T10:38:12.201Z,99244.34
2023-04-04T10:43:16.598Z,99231.56
2023-04-04T10:48:19.951Z,99226.00
2023-04-04T10:53:23.819Z,99232.06
2023-04-04T10:58:26.548Z,99230.44
2023-04-04T11:03:28.454Z,99228.72
2023-04-04T11:08:35.607Z,99226.28
2023-04-04T11:13:37.775Z,99217.69
2023-04-04T11:18:40.340Z,99214.25
2023-04-04T11:23:48.686Z,99209.50
2023-04-04T11:28:50.584Z,99210.72
2023-04-04T11:34:09.504Z,99194.91
2023-04-04T11:39:30.993Z,99197.59
2023-04-04T11:44:40.001Z,99190.28
2023-04-04T11:49:43.177Z,99178.63
2023-04-04T11:54:46.996Z,99175.63
2023-04-04T11:59:51.142Z,99178.50
2023-04-04T12:04:53.518Z,99184.69
2023-04-04T12:09:57.029Z,99165.44
2023-04-04T12:15:06.790Z,99166.56
2023-04-04T12:20:23.578Z,99166.09
2023-04-04T12:25:28.583Z,99151.81
2023-04-04T12:30:30.771Z,99150.69
2023-04-04T12:35:33.130Z,99156.59
2023-04-04T12:40:37.532Z,99146.88
2023-04-04T12:45:40.526Z,99146.91
2023-04-04T12:50:57.840Z,99143.53
2023-04-04T12:56:04.902Z,99138.44
2023-04-04T13:01:07.207Z,99134.47
2023-04-04T13:06:32.766Z,99124.28
2023-04-04T13:12:03.744Z,99120.47
2023-04-04T13:17:06.437Z,99109.34
2023-04-04T13:22:09.514Z,99102.66
2023-04-04T13:27:11.377Z,99120.47
2023-04-04T13:32:13.173Z,99117.94
2023-04-04T13:37:15.016Z,99100.88
2023-04-04T13:42:16.832Z,99105.03
2023-04-04T13:47:18.704Z,99100.09
2023-04-04T13:52:20.698Z,99093.59
2023-04-04T13:57:22.543Z,99093.31
2023-04-04T14:02:25.817Z,99093.13
2023-04-04T14:07:27.646Z,99087.09
2023-04-04T14:12:29.453Z,99077.22
2023-04-04T14:17:31.580Z,99073.25
2023-04-04T14:22:34.193Z,99074.69
2023-04-04T14:27:36.174Z,99079.44
2023-04-04T14:32:38.021Z,99073.56
2023-04-04T14:37:39.863Z,99073.06
2023-04-04T14:42:41.842Z,99074.16
2023-04-04T14:47:43.722Z,99066.19
2023-04-04T14:52:47.880Z,99063.03
2023-04-04T15:02:56.080Z,99067.19
2023-04-04T15:07:57.907Z,99062.91
2023-04-04T15:12:59.708Z,99066.72
2023-04-04T15:18:02.880Z,99058.16
2023-04-04T15:23:05.160Z,99055.31
2023-04-04T15:28:06.978Z,99045.44
2023-04-04T15:33:09.279Z,99053.06
2023-04-04T15:38:11.158Z,99045.28
2023-04-04T15:43:12.963Z,99043.22
2023-04-04T15:48:14.764Z,99048.31
2023-04-04T15:53:17.902Z,99048.09
2023-04-04T15:58:19.777Z,99048.25
2023-04-04T16:03:21.833Z,99038.72
2023-04-04T16:08:23.832Z,99033.47
2023-04-04T16:13:25.868Z,99048.09
2023-04-04T16:18:28.130Z,99042.03
2023-04-04T16:23:31.678Z,99048.72
2023-04-04T16:28:33.469Z,99038.50
2023-04-04T16:33:35.426Z,99040.53
2023-04-04T16:38:37.373Z,99035.44
2023-04-04T16:43:39.361Z,99037.13
2023-04-04T16:48:41.306Z,99042.63
2023-04-04T16:53:43.103Z,99045.44
2023-04-04T16:58:45.824Z,99032.09
2023-04-04T17:03:47.741Z,99034.13
2023-04-04T17:08:49.994Z,99037.59
2023-04-04T17:13:51.816Z,99041.19
2023-04-04T17:18:53.832Z,99031.34
2023-04-04T17:23:55.840Z,99032.09
2023-04-04T17:28:57.637Z,99034.25
2023-04-04T17:33:59.492Z,99031.81
2023-04-04T17:39:01.444Z,99035.22
2023-04-04T17:44:03.662Z,99031.09
2023-04-04T17:49:07.042Z,99039.75
2023-04-04T17:54:08.977Z,99039.41
2023-04-04T17:59:12.833Z,99044.91
2023-04-04T18:04:14.717Z,99034.97
2023-04-04T18:09:18.420Z,99036.78
2023-04-04T18:14:20.305Z,99041.19
2023-04-04T18:19:22.150Z,99038.59
2023-04-04T18:24:26.045Z,99046.16
2023-04-04T18:29:30.836Z,99038.59
2023-04-04T18:34:33.184Z,99038.59
2023-04-04T18:39:35.075Z,99042.28
2023-04-04T18:44:36.974Z,99047.47
2023-04-04T18:49:38.808Z,99054.88
2023-04-04T18:54:40.922Z,99044.19
2023-04-04T18:59:42.752Z,99050.88
2023-04-04T19:04:46.869Z,99050.84
2023-04-04T19:09:50.545Z,99053.72
2023-04-04T19:14:52.361Z,99047.56
2023-04-04T19:19:54.197Z,99050.25
2023-04-04T19:24:56.185Z,99048.03
2023-04-04T19:29:57.987Z,99051.53
2023-04-04T19:34:59.807Z,99044.75
2023-04-04T19:40:01.794Z,99048.53
2023-04-04T19:45:12.433Z,99039.97
2023-04-04T19:50:34.702Z,99044.97
2023-04-04T19:55:40.417Z,99043.19
2023-04-04T20:00:42.599Z,99044.00
2023-04-04T20:05:47.583Z,99042.38
2023-04-04T20:10:51.477Z,99041.19
2023-04-04T20:16:01.619Z,99039.19
2023-04-04T20:21:24.369Z,99035.03
2023-04-04T20:26:35.421Z,99033.22
2023-04-04T20:31:51.484Z,99035.81
2023-04-04T20:36:53.704Z,99031.25
2023-04-04T20:41:55.990Z,99030.47
2023-04-04T20:46:58.102Z,99033.88
2023-04-04T20:51:59.993Z,99044.66
2023-04-04T20:57:02.271Z,99045.53
2023-04-04T21:02:23.470Z,99045.69
2023-04-04T21:07:35.930Z,99040.84
2023-04-04T21:12:37.728Z,99039.97
2023-04-04T21:17:40.022Z,99036.56
2023-04-04T21:22:47.058Z,99033.22
2023-04-04T21:27:54.516Z,99026.00
2023-04-04T21:32:56.393Z,99024.84
2023-04-04T21:37:58.255Z,99017.72
2023-04-04T21:43:00.072Z,99020.66
2023-04-04T21:48:01.979Z,99014.13
2023-04-04T21:53:03.827Z,99014.53
2023-04-04T21:58:05.628Z,99016.25
2023-04-04T22:03:07.578Z,99005.28
2023-04-04T22:08:09.393Z,99011.66
2023-04-04T22:13:14.906Z,99005.72
2023-04-04T22:18:17.357Z,99007.03
2023-04-04T22:23:21.769Z,99014.72
2023-04-04T22:28:25.094Z,99002.53
2023-04-04T22:33:29.930Z,98998.63
2023-04-04T22:38:31.830Z,98993.75
2023-04-04T22:43:33.803Z,99001.59
2023-04-04T22:48:41.250Z,98987.81
2023-04-04T22:53:44.441Z,98996.59
2023-04-04T22:58:46.529Z,99001.59
2023-04-04T23:03:48.416Z,98992.72
2023-04-04T23:08:50.589Z,98987.59
2023-04-04T23:13:53.999Z,98985.63
2023-04-04T23:18:55.846Z,98978.16
2023-04-04T23:23:58.424Z,98979.91
2023-04-04T23:29:01.590Z,98976.16
2023-04-04T23:34:03.465Z,98975.13
2023-04-04T23:39:05.489Z,98982.97
2023-04-04T23:44:07.395Z,98975.13
2023-04-04T23:49:09.644Z,98963.00
2023-04-04T23:54:13.038Z,98965.97
2023-04-04T23:59:14.872Z,98960.75
